Terminal Aerodrome Forecast
Issued by NWS Twin Cities, MN

Home | Current Version | Previous Version | Text Only | Print | Product List | Glossary Off
Versions: 1 2 3 4 5 6 7 8 9 10 11 12 13 14 15 16

000
FTUS43 KMPX 252300 RRA
TAFEAU
TAF
KEAU 252347Z 2600/2624 18005KT P6SM FEW025 OVC035
      TEMPO 2604/2608 5SM BR OVC025
     FM260800 00000KT 3SM BR OVC018
      TEMPO 2608/2612 1SM BR VV006
     FM261400 28004KT P6SM SCT020 SCT120
     FM261700 27007KT P6SM SCT035 BKN150=

USA.gov is the U.S. government's official web portal to all federal, state and local government web resources and services.